Time;durP1;ratioP1;P1;durP2;ratioP2;P2;SDS_P1;SDS_P2;PMS_P1;PMS_P2;Temp;Humidity;BMP_temperature;BMP_pressure;BME280_temperature;BME280_humidity;BME280_pressure;Samples;Min_cycle;Max_cycle;Signal;HPM_P1;HPM_P2
2024/02/02 00:01:19;;;;;;;15.52;7.78;;;3.50;99.90;;;;;;5049520;28;20121;-51
2024/02/02 00:03:46;;;;;;;16.80;6.80;;;3.50;99.90;;;;;;5048309;28;20502;-46
2024/02/02 00:06:13;;;;;;;21.15;8.00;;;3.50;99.90;;;;;;5045714;28;20049;-47
2024/02/02 00:08:40;;;;;;;17.17;7.75;;;3.50;99.90;;;;;;5048207;28;20052;-53
2024/02/02 00:11:07;;;;;;;21.52;7.53;;;3.50;99.90;;;;;;5050075;28;20057;-45
2024/02/02 00:13:34;;;;;;;17.45;7.32;;;3.50;99.90;;;;;;5048858;28;20040;-46
2024/02/02 00:16:01;;;;;;;14.35;7.45;;;3.50;99.90;;;;;;5049216;28;20131;-46
2024/02/02 00:18:28;;;;;;;16.23;7.75;;;3.50;99.90;;;;;;5050641;28;20093;-49
2024/02/02 00:20:56;;;;;;;18.10;7.40;;;3.60;99.90;;;;;;5049904;28;20045;-48
2024/02/02 00:23:23;;;;;;;13.20;7.30;;;3.60;99.90;;;;;;5046550;28;20057;-45
2024/02/02 00:25:50;;;;;;;16.00;7.05;;;3.50;99.90;;;;;;5047866;28;20226;-48
2024/02/02 00:28:17;;;;;;;16.52;7.22;;;3.50;99.90;;;;;;5029818;28;20072;-48
2024/02/02 00:30:44;;;;;;;12.63;6.95;;;3.50;99.90;;;;;;5050066;28;20052;-42
2024/02/02 00:33:11;;;;;;;15.13;7.80;;;3.40;99.90;;;;;;5049743;28;20081;-48
2024/02/02 00:35:39;;;;;;;14.20;6.80;;;3.40;99.90;;;;;;5045553;28;20059;-49
2024/02/02 00:38:06;;;;;;;21.75;7.22;;;3.40;99.90;;;;;;5045782;28;20508;-45
2024/02/02 00:40:33;;;;;;;13.80;6.97;;;3.40;99.90;;;;;;5047808;28;20049;-48
2024/02/02 00:43:00;;;;;;;15.63;6.93;;;3.30;99.90;;;;;;5048179;28;20073;-46
2024/02/02 00:45:27;;;;;;;14.75;6.88;;;3.30;99.90;;;;;;5050807;28;20152;-51
2024/02/02 00:47:54;;;;;;;11.98;6.75;;;3.20;99.90;;;;;;5051351;28;20047;-45
2024/02/02 00:50:21;;;;;;;14.45;7.22;;;3.20;99.90;;;;;;5050666;28;20128;-46
2024/02/02 00:52:48;;;;;;;21.75;7.68;;;3.10;99.90;;;;;;5047908;28;20067;-47
2024/02/02 00:55:15;;;;;;;14.32;7.13;;;3.10;99.90;;;;;;5047741;28;20049;-55
2024/02/02 00:57:43;;;;;;;15.48;7.15;;;3.00;99.90;;;;;;5047303;28;20116;-44
2024/02/02 01:00:10;;;;;;;16.73;6.85;;;2.90;99.90;;;;;;5055397;28;20061;-51
2024/02/02 01:02:39;;;;;;;20.33;7.68;;;2.90;99.90;;;;;;5061860;28;20045;-49
2024/02/02 01:05:06;;;;;;;17.10;7.50;;;2.80;99.90;;;;;;5039328;28;20465;-45
2024/02/02 01:07:33;;;;;;;20.48;7.15;;;2.80;99.90;;;;;;5045582;28;20103;-44
2024/02/02 01:10:00;;;;;;;18.92;8.15;;;2.80;99.90;;;;;;5046534;28;20099;-49
2024/02/02 01:12:27;;;;;;;20.67;8.05;;;2.80;99.90;;;;;;5047898;28;20047;-50
2024/02/02 01:14:55;;;;;;;18.10;7.90;;;2.70;99.90;;;;;;5050493;28;20045;-52
2024/02/02 01:17:21;;;;;;;12.18;6.82;;;2.60;99.90;;;;;;5048436;28;20044;-43
2024/02/02 01:19:49;;;;;;;17.20;7.65;;;2.60;99.90;;;;;;5047954;28;20524;-46
2024/02/02 01:22:16;;;;;;;17.55;7.60;;;2.50;99.90;;;;;;5048542;28;20741;-53
2024/02/02 01:24:43;;;;;;;16.52;7.53;;;2.50;99.90;;;;;;5048651;28;20080;-44
2024/02/02 01:27:10;;;;;;;17.85;7.88;;;2.50;99.90;;;;;;5048096;28;20498;-48
2024/02/02 01:29:37;;;;;;;18.80;7.07;;;2.50;99.90;;;;;;5047649;28;20051;-46
2024/02/02 01:32:04;;;;;;;32.70;7.72;;;2.50;99.90;;;;;;5046417;28;20108;-45
2024/02/02 01:34:32;;;;;;;20.05;7.30;;;2.50;99.90;;;;;;5047040;28;20060;-45
2024/02/02 01:36:59;;;;;;;16.20;7.65;;;2.50;99.90;;;;;;5048928;28;20045;-48
2024/02/02 01:39:26;;;;;;;19.85;7.53;;;2.50;99.90;;;;;;5045803;28;20502;-46
2024/02/02 01:41:54;;;;;;;18.33;7.32;;;2.50;99.90;;;;;;5041320;28;20041;-47
2024/02/02 01:44:21;;;;;;;17.20;7.50;;;2.50;99.90;;;;;;5044453;28;20060;-50
2024/02/02 01:46:48;;;;;;;13.70;6.60;;;2.50;99.90;;;;;;5044208;28;20091;-50
2024/02/02 01:49:15;;;;;;;18.00;6.57;;;2.50;99.90;;;;;;5044279;28;20060;-45
2024/02/02 01:51:42;;;;;;;13.10;6.53;;;2.60;99.90;;;;;;5045263;28;20092;-43
2024/02/02 01:54:10;;;;;;;17.77;6.47;;;2.60;99.90;;;;;;5042096;28;20045;-48
2024/02/02 01:56:37;;;;;;;18.05;6.47;;;2.60;99.90;;;;;;5050728;28;20430;-45
2024/02/02 01:59:05;;;;;;;18.98;8.43;;;2.60;99.90;;;;;;5051072;28;20517;-44
2024/02/02 02:01:32;;;;;;;18.13;6.35;;;2.70;99.90;;;;;;5045144;28;20072;-44
2024/02/02 02:03:59;;;;;;;20.13;7.45;;;2.70;99.90;;;;;;5042882;28;20646;-45
2024/02/02 02:06:27;;;;;;;17.30;7.57;;;2.70;99.90;;;;;;5046818;28;20041;-48
2024/02/02 02:08:55;;;;;;;14.75;7.10;;;2.70;99.90;;;;;;5046113;28;20087;-48
2024/02/02 02:11:23;;;;;;;17.90;7.13;;;2.70;99.90;;;;;;5048767;28;20045;-46
2024/02/02 02:13:51;;;;;;;15.13;6.65;;;2.70;99.90;;;;;;5045665;28;20557;-44
2024/02/02 02:16:18;;;;;;;17.60;6.63;;;2.80;99.90;;;;;;5042080;28;20419;-49
2024/02/02 02:18:44;;;;;;;18.02;6.75;;;2.80;99.90;;;;;;5044797;28;20037;-47
2024/02/02 02:21:26;;;;;;;14.13;6.47;;;2.80;99.90;;;;;;5044887;28;20060;-49
2024/02/02 02:23:54;;;;;;;19.00;7.57;;;2.80;99.90;;;;;;5048699;28;20564;-45
2024/02/02 02:26:21;;;;;;;20.60;6.75;;;2.80;99.90;;;;;;5045177;28;20041;-45
2024/02/02 02:28:49;;;;;;;16.58;6.45;;;2.80;99.90;;;;;;5047886;28;20053;-51
2024/02/02 02:31:16;;;;;;;16.05;6.38;;;2.80;99.90;;;;;;5023829;28;20370;-45
2024/02/02 02:33:44;;;;;;;25.58;6.65;;;2.70;99.90;;;;;;5045959;28;20102;-44
2024/02/02 02:36:13;;;;;;;19.50;7.25;;;2.80;99.90;;;;;;5046878;28;20075;-47
2024/02/02 02:38:42;;;;;;;24.80;8.15;;;2.80;99.90;;;;;;5044062;28;20045;-46
2024/02/02 02:41:08;;;;;;;17.92;6.53;;;2.80;99.90;;;;;;5049472;28;20069;-47
2024/02/02 02:43:35;;;;;;;19.75;6.55;;;2.80;99.90;;;;;;5044155;28;20131;-50
2024/02/02 02:46:03;;;;;;;18.98;8.07;;;2.80;99.90;;;;;;5044453;28;20048;-48
2024/02/02 02:48:29;;;;;;;17.25;6.57;;;2.90;99.90;;;;;;5047178;28;20053;-47
2024/02/02 02:50:57;;;;;;;19.88;5.95;;;2.90;99.90;;;;;;5047661;28;20057;-48
2024/02/02 02:53:24;;;;;;;16.20;6.72;;;2.80;99.90;;;;;;5043025;28;20071;-50
2024/02/02 02:55:51;;;;;;;18.08;7.05;;;2.90;99.90;;;;;;5046865;28;20045;-49
2024/02/02 02:58:18;;;;;;;19.90;6.65;;;2.90;99.90;;;;;;5042834;28;20049;-45
2024/02/02 03:00:45;;;;;;;26.02;6.53;;;2.90;99.90;;;;;;5044151;28;20037;-49
2024/02/02 03:03:12;;;;;;;18.45;6.45;;;2.90;99.90;;;;;;5045728;28;20146;-44
2024/02/02 03:05:39;;;;;;;18.55;6.85;;;2.90;99.90;;;;;;5042949;28;20048;-51
2024/02/02 03:08:07;;;;;;;15.82;6.45;;;2.90;99.90;;;;;;5042999;28;20057;-46
2024/02/02 03:10:34;;;;;;;23.35;7.07;;;2.90;99.90;;;;;;5046462;28;20042;-44
2024/02/02 03:13:01;;;;;;;18.88;6.00;;;2.90;99.90;;;;;;5045300;28;20478;-49
2024/02/02 03:15:31;;;;;;;15.05;6.60;;;2.90;99.90;;;;;;5045868;28;20379;-49
2024/02/02 03:18:00;;;;;;;19.30;7.57;;;2.90;99.90;;;;;;5045965;28;20104;-44
2024/02/02 03:20:27;;;;;;;17.17;6.53;;;2.90;99.90;;;;;;5050904;28;20049;-50
2024/02/02 03:22:55;;;;;;;19.92;7.05;;;2.90;99.90;;;;;;5051376;28;20147;-45
2024/02/02 03:25:22;;;;;;;21.08;7.00;;;2.90;99.90;;;;;;5030370;28;20067;-53
2024/02/02 03:27:49;;;;;;;22.85;8.05;;;2.90;99.90;;;;;;5047010;28;20116;-45
2024/02/02 03:30:16;;;;;;;18.40;6.63;;;3.00;99.90;;;;;;5052317;28;20128;-49
2024/02/02 03:32:44;;;;;;;13.75;6.85;;;3.00;99.90;;;;;;5048641;28;20416;-48
2024/02/02 03:35:11;;;;;;;23.88;7.80;;;3.00;99.90;;;;;;5045741;28;20060;-46
2024/02/02 03:37:38;;;;;;;16.65;6.43;;;3.00;99.90;;;;;;5049549;28;20045;-53
2024/02/02 03:40:06;;;;;;;18.35;6.82;;;2.90;99.90;;;;;;5046026;28;20100;-46
2024/02/02 03:42:33;;;;;;;22.17;7.47;;;3.00;99.90;;;;;;5046099;28;20128;-46
2024/02/02 03:45:00;;;;;;;15.88;6.72;;;3.00;99.90;;;;;;5047230;28;20048;-46
2024/02/02 03:47:27;;;;;;;21.00;7.45;;;3.00;99.90;;;;;;5044793;28;20037;-46
2024/02/02 03:49:54;;;;;;;23.33;8.10;;;2.90;99.90;;;;;;5050234;28;20072;-48
2024/02/02 03:52:23;;;;;;;20.80;8.40;;;2.90;99.90;;;;;;5045894;28;20045;-49
2024/02/02 03:54:51;;;;;;;23.27;7.07;;;2.90;99.90;;;;;;5042529;28;20469;-46
2024/02/02 03:57:18;;;;;;;24.27;7.68;;;2.90;99.90;;;;;;5045665;28;20046;-43
2024/02/02 03:59:45;;;;;;;15.18;6.90;;;2.90;99.90;;;;;;5046144;28;20037;-48
2024/02/02 04:02:12;;;;;;;15.73;6.85;;;2.90;99.90;;;;;;5044334;28;20676;-46
2024/02/02 04:04:39;;;;;;;18.58;7.00;;;3.00;99.90;;;;;;5043647;28;20072;-51
2024/02/02 04:07:06;;;;;;;27.27;8.27;;;3.00;99.90;;;;;;5043952;28;20292;-47
2024/02/02 04:09:33;;;;;;;17.20;6.80;;;3.00;99.90;;;;;;5045617;28;20043;-49
2024/02/02 04:12:00;;;;;;;19.33;7.10;;;3.00;99.90;;;;;;5043492;28;20048;-47
2024/02/02 04:14:27;;;;;;;19.52;7.70;;;3.00;99.90;;;;;;5039399;28;20516;-53
2024/02/02 04:16:54;;;;;;;23.35;8.02;;;3.00;99.90;;;;;;5043777;28;20084;-48
2024/02/02 04:19:21;;;;;;;21.10;7.05;;;3.00;99.90;;;;;;5042093;28;20505;-40
2024/02/02 04:21:49;;;;;;;21.88;7.60;;;3.00;99.90;;;;;;5041992;28;20457;-43
2024/02/02 04:24:16;;;;;;;21.27;7.72;;;3.00;99.90;;;;;;5039068;28;20033;-46
2024/02/02 04:26:43;;;;;;;19.30;7.60;;;3.00;99.90;;;;;;5040298;28;20142;-48
2024/02/02 04:29:11;;;;;;;19.60;8.38;;;3.00;99.90;;;;;;5042607;28;20088;-46
2024/02/02 04:31:38;;;;;;;20.73;7.47;;;3.00;99.90;;;;;;5048729;28;20065;-46
2024/02/02 04:34:04;;;;;;;19.23;7.13;;;3.00;99.90;;;;;;5044575;28;20103;-47
2024/02/02 04:36:32;;;;;;;18.55;6.97;;;2.90;99.90;;;;;;5046132;28;20244;-41
2024/02/02 04:38:59;;;;;;;23.33;8.27;;;2.90;99.90;;;;;;5044980;28;20434;-44
2024/02/02 04:41:26;;;;;;;27.23;7.88;;;2.90;99.90;;;;;;5039942;28;20525;-48
2024/02/02 04:43:52;;;;;;;18.33;7.93;;;2.90;99.90;;;;;;5042194;28;20051;-48
2024/02/02 04:46:19;;;;;;;19.80;7.50;;;2.90;99.90;;;;;;5038643;28;20135;-47
2024/02/02 04:48:46;;;;;;;19.60;7.70;;;2.90;99.90;;;;;;5046440;28;20131;-50
2024/02/02 04:51:14;;;;;;;21.35;7.35;;;2.90;99.90;;;;;;5046033;28;20051;-48
2024/02/02 04:53:40;;;;;;;20.45;8.63;;;3.00;99.90;;;;;;5041167;28;20041;-48
2024/02/02 04:56:07;;;;;;;20.30;8.98;;;3.00;99.90;;;;;;5041137;28;20041;-45
2024/02/02 04:58:34;;;;;;;27.02;7.65;;;3.10;99.90;;;;;;5040827;28;20384;-44
2024/02/02 05:01:01;;;;;;;24.67;8.32;;;3.00;99.90;;;;;;5043439;28;20528;-47
2024/02/02 05:03:30;;;;;;;23.23;7.75;;;3.00;99.90;;;;;;5044678;28;20465;-46
2024/02/02 05:05:58;;;;;;;21.90;8.63;;;3.00;99.90;;;;;;5041039;28;20056;-48
2024/02/02 05:08:24;;;;;;;25.55;8.57;;;3.00;99.90;;;;;;5042893;28;20033;-45
2024/02/02 05:10:51;;;;;;;22.80;7.72;;;3.00;99.90;;;;;;5042238;28;20041;-44
2024/02/02 05:13:18;;;;;;;24.13;8.73;;;3.00;99.90;;;;;;5037739;28;20056;-45
2024/02/02 05:15:46;;;;;;;19.52;8.10;;;3.10;99.90;;;;;;5039499;28;20382;-49
2024/02/02 05:18:14;;;;;;;20.30;7.80;;;3.10;99.90;;;;;;5036558;28;20111;-47
2024/02/02 05:20:41;;;;;;;27.10;8.35;;;3.10;99.90;;;;;;5042575;28;20115;-46
2024/02/02 05:23:08;;;;;;;20.65;8.07;;;3.10;99.90;;;;;;5039457;28;20041;-47
2024/02/02 05:25:35;;;;;;;21.83;9.40;;;3.10;99.90;;;;;;5039939;28;20080;-43
2024/02/02 05:28:04;;;;;;;22.45;8.75;;;3.20;99.90;;;;;;5044662;28;20474;-45
2024/02/02 05:30:31;;;;;;;23.15;8.77;;;3.20;99.90;;;;;;5035519;28;20141;-46
2024/02/02 05:32:58;;;;;;;25.70;9.50;;;3.20;99.90;;;;;;5040196;28;20045;-50
2024/02/02 05:35:25;;;;;;;20.13;8.10;;;3.20;99.90;;;;;;5040078;28;20096;-44
2024/02/02 05:37:52;;;;;;;21.45;8.45;;;3.20;99.90;;;;;;5041453;28;20045;-51
2024/02/02 05:40:18;;;;;;;16.95;8.00;;;3.20;99.90;;;;;;5034356;28;20128;-47
2024/02/02 05:42:45;;;;;;;19.05;8.02;;;3.20;99.90;;;;;;5039252;28;20255;-47
2024/02/02 05:45:13;;;;;;;19.58;8.45;;;3.20;99.90;;;;;;5039001;28;20040;-47
2024/02/02 05:47:40;;;;;;;41.25;9.15;;;3.30;99.90;;;;;;5038163;28;20052;-50
2024/02/02 05:50:07;;;;;;;20.35;8.52;;;3.30;99.90;;;;;;5040238;28;20120;-45
2024/02/02 05:52:34;;;;;;;25.42;9.55;;;3.30;99.90;;;;;;5040706;28;20124;-50
2024/02/02 05:55:01;;;;;;;18.92;9.07;;;3.30;99.90;;;;;;5037016;28;20164;-43
2024/02/02 05:57:28;;;;;;;24.83;9.00;;;3.30;99.90;;;;;;5041090;28;20453;-48
2024/02/02 05:59:55;;;;;;;21.55;9.23;;;3.40;99.90;;;;;;5047283;28;20053;-48
2024/02/02 06:02:22;;;;;;;24.98;9.20;;;3.50;99.90;;;;;;5044719;28;20076;-49
2024/02/02 06:04:50;;;;;;;28.65;8.63;;;3.50;99.90;;;;;;5041833;28;20128;-48
2024/02/02 06:07:18;;;;;;;26.90;8.85;;;3.40;99.90;;;;;;5046601;28;20041;-45
2024/02/02 06:09:45;;;;;;;21.75;8.85;;;3.50;99.90;;;;;;5048781;28;20429;-46
2024/02/02 06:12:12;;;;;;;26.83;9.70;;;3.50;99.90;;;;;;5046334;28;20045;-41
2024/02/02 06:14:39;;;;;;;23.65;9.65;;;3.60;99.90;;;;;;5045006;28;20509;-45
2024/02/02 06:17:09;;;;;;;22.88;9.52;;;3.60;99.90;;;;;;5045104;28;20056;-49
2024/02/02 06:19:36;;;;;;;25.67;10.00;;;3.60;99.90;;;;;;5047291;28;20037;-49
2024/02/02 06:22:04;;;;;;;38.40;9.52;;;3.60;99.90;;;;;;5051733;28;20041;-44
2024/02/02 06:24:32;;;;;;;24.98;9.52;;;3.60;99.90;;;;;;5049457;28;20079;-50
2024/02/02 06:27:00;;;;;;;26.60;9.35;;;3.60;99.90;;;;;;5043567;28;20061;-46
2024/02/02 06:29:27;;;;;;;22.27;8.50;;;3.60;99.90;;;;;;5046903;28;20048;-54
2024/02/02 06:31:57;;;;;;;23.88;10.20;;;3.60;99.90;;;;;;5048242;28;20538;-43
2024/02/02 06:34:24;;;;;;;26.73;9.95;;;3.60;99.90;;;;;;5046692;28;20087;-53
2024/02/02 06:36:51;;;;;;;28.25;9.65;;;3.60;99.90;;;;;;5049451;28;20410;-43
2024/02/02 06:39:19;;;;;;;22.05;9.00;;;3.60;99.90;;;;;;5049341;28;20060;-49
2024/02/02 06:41:47;;;;;;;20.70;9.60;;;3.60;99.90;;;;;;5050505;28;20053;-47
2024/02/02 06:44:14;;;;;;;22.95;9.10;;;3.70;99.90;;;;;;5053090;28;20060;-47
2024/02/02 06:46:41;;;;;;;19.92;9.20;;;3.70;99.90;;;;;;5049543;28;20203;-45
2024/02/02 06:49:08;;;;;;;24.48;9.68;;;3.70;99.90;;;;;;5046869;28;20534;-51
2024/02/02 06:51:35;;;;;;;27.50;9.23;;;3.70;99.90;;;;;;5046022;28;20049;-45
2024/02/02 06:54:03;;;;;;;31.20;9.70;;;3.70;99.90;;;;;;5043037;28;20465;-51
2024/02/02 06:56:38;;;;;;;21.27;9.52;;;3.70;99.90;;;;;;5049634;28;20040;-48
2024/02/02 06:59:06;;;;;;;28.95;9.93;;;3.80;99.90;;;;;;5049117;28;20130;-44
2024/02/02 07:01:34;;;;;;;20.90;9.63;;;3.80;99.90;;;;;;5053458;28;20040;-44
2024/02/02 07:04:03;;;;;;;24.45;8.95;;;3.80;99.90;;;;;;5043283;28;20041;-43
2024/02/02 07:06:34;;;;;;;20.65;8.65;;;3.80;99.90;;;;;;5051059;28;20044;-44
2024/02/02 07:09:29;;;;;;;20.75;8.75;;;3.90;99.90;;;;;;5050708;28;20461;-44
2024/02/02 07:12:06;;;;;;;25.80;8.95;;;3.90;99.90;;;;;;5044669;28;20051;-44
2024/02/02 07:14:47;;;;;;;26.25;8.38;;;4.00;99.90;;;;;;5049693;28;20435;-46
2024/02/02 07:17:33;;;;;;;24.50;9.32;;;4.10;99.90;;;;;;5049610;28;20044;-50
2024/02/02 07:20:06;;;;;;;23.42;9.32;;;4.10;99.90;;;;;;5046892;28;20132;-46
2024/02/02 07:22:40;;;;;;;21.90;9.00;;;4.10;99.90;;;;;;5047014;28;20048;-48
2024/02/02 07:25:11;;;;;;;23.10;8.23;;;4.20;99.90;;;;;;5049204;28;20041;-44
2024/02/02 07:27:51;;;;;;;25.70;8.27;;;4.20;99.90;;;;;;5048366;28;20076;-47
2024/02/02 07:30:41;;;;;;;21.25;7.82;;;4.20;99.90;;;;;;5041346;28;20053;-46
2024/02/02 07:33:20;;;;;;;21.73;9.82;;;4.30;99.90;;;;;;5048829;28;20662;-45
2024/02/02 07:35:47;;;;;;;20.17;9.38;;;4.30;99.90;;;;;;5048807;28;20056;-48
2024/02/02 07:38:46;;;;;;;22.33;8.70;;;4.30;99.90;;;;;;5045160;28;20045;-45
2024/02/02 07:41:15;;;;;;;23.13;8.35;;;4.40;99.90;;;;;;5045409;28;20060;-41
2024/02/02 07:43:43;;;;;;;24.30;9.27;;;4.50;99.90;;;;;;5049673;28;20037;-46
2024/02/02 07:46:11;;;;;;;20.70;9.55;;;4.50;99.90;;;;;;5051139;28;20043;-48
2024/02/02 07:48:42;;;;;;;17.65;7.82;;;4.60;99.90;;;;;;5051002;28;20056;-48
2024/02/02 07:51:11;;;;;;;25.52;8.60;;;4.70;99.90;;;;;;5049216;28;20044;-48
2024/02/02 07:53:38;;;;;;;22.63;8.40;;;4.70;99.90;;;;;;5047763;28;20044;-48
2024/02/02 07:56:06;;;;;;;22.83;8.50;;;4.80;99.90;;;;;;5049526;28;20084;-45
2024/02/02 07:58:32;;;;;;;20.27;8.27;;;4.80;99.90;;;;;;5048046;28;20068;-47
2024/02/02 08:00:59;;;;;;;25.52;8.38;;;4.80;99.90;;;;;;5050684;28;20123;-47
2024/02/02 08:03:26;;;;;;;18.15;7.82;;;4.80;99.90;;;;;;5046057;28;20108;-46
2024/02/02 08:05:54;;;;;;;22.75;8.13;;;4.80;99.90;;;;;;5049135;28;20120;-44
2024/02/02 08:08:21;;;;;;;20.88;8.52;;;4.80;99.90;;;;;;5053802;28;20056;-45
2024/02/02 08:10:48;;;;;;;27.17;8.70;;;4.70;99.90;;;;;;5052917;28;20053;-43
2024/02/02 08:13:16;;;;;;;23.27;8.85;;;4.80;99.90;;;;;;5053134;28;20227;-46
2024/02/02 08:15:43;;;;;;;20.73;8.85;;;4.70;99.90;;;;;;5051079;28;20049;-44
2024/02/02 08:18:11;;;;;;;21.75;8.05;;;4.70;99.90;;;;;;5049811;28;20044;-42
2024/02/02 08:20:38;;;;;;;27.85;8.70;;;4.70;99.90;;;;;;5046262;28;20066;-45
2024/02/02 08:23:05;;;;;;;21.55;8.25;;;4.70;99.90;;;;;;5041930;28;20045;-48
2024/02/02 08:25:33;;;;;;;21.15;8.32;;;4.60;99.90;;;;;;5048478;28;20045;-52
2024/02/02 08:28:01;;;;;;;22.52;8.10;;;4.70;99.90;;;;;;5046043;28;20045;-53
2024/02/02 08:30:28;;;;;;;19.42;7.60;;;4.70;99.90;;;;;;5047828;28;20056;-46
2024/02/02 08:32:55;;;;;;;19.00;8.25;;;4.80;99.90;;;;;;5052844;28;20637;-48
2024/02/02 08:35:24;;;;;;;21.95;8.60;;;4.80;99.90;;;;;;5044773;28;20045;-46
2024/02/02 08:37:57;;;;;;;19.85;7.97;;;4.90;99.90;;;;;;5045810;28;20037;-48
2024/02/02 08:40:45;;;;;;;21.00;7.93;;;5.00;99.90;;;;;;5041573;28;20068;-49
2024/02/02 08:43:15;;;;;;;16.88;7.32;;;5.00;99.90;;;;;;5042506;28;20064;-47
2024/02/02 08:45:42;;;;;;;17.83;7.15;;;5.00;99.90;;;;;;5041300;28;20060;-47
2024/02/02 08:48:48;;;;;;;24.10;8.43;;;5.20;99.90;;;;;;5039921;28;20049;-46
2024/02/02 08:51:21;;;;;;;18.33;7.68;;;5.10;99.90;;;;;;5038575;28;20056;-51
2024/02/02 08:53:54;;;;;;;21.50;8.60;;;5.20;99.90;;;;;;5044925;28;20068;-46
2024/02/02 08:56:20;;;;;;;19.48;7.85;;;5.20;99.90;;;;;;5024409;28;22037;-45
2024/02/02 08:58:47;;;;;;;21.50;7.25;;;5.20;99.90;;;;;;5046514;28;20049;-55
2024/02/02 09:01:44;;;;;;;22.75;7.35;;;5.30;99.90;;;;;;5042211;28;20505;-45
2024/02/02 09:05:00;;;;;;;20.38;7.28;;;5.10;99.90;;;;;;5031174;28;20558;-46
2024/02/02 09:07:28;;;;;;;21.90;9.02;;;5.10;99.90;;;;;;5041431;28;20055;-51
2024/02/02 09:09:55;;;;;;;21.20;8.40;;;5.10;99.90;;;;;;5043379;28;20148;-47
2024/02/02 09:12:27;;;;;;;17.35;8.23;;;5.20;99.90;;;;;;5044077;28;20053;-45
2024/02/02 09:14:54;;;;;;;15.80;7.55;;;5.20;99.90;;;;;;5044962;28;20067;-52
2024/02/02 09:17:21;;;;;;;17.35;7.53;;;5.20;99.90;;;;;;5043893;28;20045;-45
2024/02/02 09:19:50;;;;;;;20.33;7.93;;;5.30;99.90;;;;;;5024283;28;20041;-44
2024/02/02 09:22:18;;;;;;;16.27;7.78;;;5.20;99.90;;;;;;5040779;28;20088;-48
2024/02/02 09:24:51;;;;;;;20.83;8.20;;;5.20;99.90;;;;;;5041536;28;20047;-48
2024/02/02 09:27:32;;;;;;;22.42;7.72;;;5.30;99.90;;;;;;5040511;28;20173;-46
2024/02/02 09:29:59;;;;;;;21.00;8.23;;;5.40;99.90;;;;;;5044477;28;20055;-45
2024/02/02 09:32:27;;;;;;;22.00;8.65;;;5.40;99.90;;;;;;5042668;28;20042;-51
2024/02/02 09:35:00;;;;;;;17.73;8.82;;;5.40;99.90;;;;;;5039566;28;20033;-48
2024/02/02 09:37:43;;;;;;;22.35;7.55;;;5.40;99.90;;;;;;5042044;28;20045;-47
2024/02/02 09:40:48;;;;;;;23.45;8.48;;;5.40;99.90;;;;;;5020724;28;20131;-48
2024/02/02 09:43:31;;;;;;;22.95;8.95;;;5.50;99.90;;;;;;5037674;28;20513;-50
2024/02/02 09:46:20;;;;;;;20.27;8.35;;;5.50;99.90;;;;;;5035305;28;20055;-45
2024/02/02 09:49:07;;;;;;;24.13;8.60;;;5.60;99.90;;;;;;5037513;28;20030;-49
2024/02/02 09:51:56;;;;;;;23.40;8.68;;;5.80;99.90;;;;;;5041946;28;20048;-46
2024/02/02 09:55:06;;;;;;;16.75;7.93;;;5.90;99.90;;;;;;5040060;28;20205;-48
2024/02/02 09:57:42;;;;;;;15.70;7.55;;;6.10;99.90;;;;;;5041309;28;20044;-47
2024/02/02 10:00:31;;;;;;;17.08;8.63;;;6.20;99.90;;;;;;5043902;28;20172;-51
2024/02/02 10:03:18;;;;;;;18.88;8.85;;;6.40;99.90;;;;;;5038159;28;20052;-50
2024/02/02 10:06:09;;;;;;;20.95;9.15;;;6.40;99.90;;;;;;5037050;28;20413;-47
2024/02/02 10:08:46;;;;;;;15.35;8.32;;;6.40;99.90;;;;;;5039696;28;20119;-47
2024/02/02 10:11:22;;;;;;;23.55;9.00;;;6.40;99.90;;;;;;5036227;28;20053;-46
2024/02/02 10:14:19;;;;;;;18.58;9.75;;;6.30;99.90;;;;;;5043742;28;20049;-48
2024/02/02 10:16:52;;;;;;;18.40;8.95;;;6.30;99.90;;;;;;5040452;28;20327;-47
2024/02/02 10:19:58;;;;;;;20.15;9.48;;;6.30;99.90;;;;;;5047624;28;20156;-45
2024/02/02 10:22:54;;;;;;;23.50;9.90;;;6.30;99.90;;;;;;5044730;28;20422;-47
2024/02/02 10:25:50;;;;;;;18.42;9.32;;;6.40;99.90;;;;;;5046021;28;20593;-46
2024/02/02 10:28:47;;;;;;;20.92;10.90;;;6.40;99.90;;;;;;5047564;28;20467;-48
2024/02/02 10:31:42;;;;;;;16.17;9.95;;;6.50;99.90;;;;;;5041003;28;20049;-48
2024/02/02 10:34:38;;;;;;;20.20;9.93;;;6.50;99.90;;;;;;5043792;28;20072;-49
2024/02/02 10:37:19;;;;;;;18.17;10.02;;;6.80;99.90;;;;;;5041212;28;20345;-48
2024/02/02 10:40:06;;;;;;;16.75;9.32;;;6.80;99.90;;;;;;5044670;28;20045;-50
2024/02/02 10:42:58;;;;;;;14.75;8.85;;;6.90;99.90;;;;;;5043110;28;20033;-49
2024/02/02 10:45:51;;;;;;;13.98;9.27;;;6.90;99.90;;;;;;5043053;28;20053;-48
2024/02/02 10:48:46;;;;;;;14.55;8.68;;;6.80;99.90;;;;;;5018915;28;20525;-46
2024/02/02 10:51:29;;;;;;;17.08;9.20;;;7.00;99.90;;;;;;5041565;28;20128;-47
2024/02/02 10:54:10;;;;;;;18.23;8.73;;;7.20;99.90;;;;;;5033808;28;20513;-44
2024/02/02 10:56:37;;;;;;;14.10;8.52;;;7.10;99.90;;;;;;5043227;28;20123;-44
2024/02/02 10:59:27;;;;;;;14.95;8.82;;;7.10;99.90;;;;;;5043044;28;20429;-44
2024/02/02 11:02:08;;;;;;;19.08;9.25;;;7.10;99.90;;;;;;5044643;28;20068;-46
2024/02/02 11:04:56;;;;;;;14.98;9.45;;;7.00;99.90;;;;;;5042647;28;20052;-47
2024/02/02 11:07:28;;;;;;;17.13;9.43;;;7.00;99.90;;;;;;5047921;28;20049;-47
2024/02/02 11:09:59;;;;;;;17.95;9.68;;;7.00;99.90;;;;;;5047235;28;20116;-48
2024/02/02 11:12:45;;;;;;;20.70;9.52;;;7.00;99.90;;;;;;5042910;28;20041;-47
2024/02/02 11:15:26;;;;;;;18.20;9.48;;;7.20;99.90;;;;;;5041886;28;20108;-49
2024/02/02 11:18:26;;;;;;;16.60;9.45;;;7.30;99.90;;;;;;5041001;28;20492;-49
2024/02/02 11:21:01;;;;;;;15.13;9.48;;;7.30;99.90;;;;;;5041325;28;20037;-44
2024/02/02 11:23:37;;;;;;;15.23;8.52;;;7.30;99.90;;;;;;5042554;28;20100;-49
2024/02/02 11:26:26;;;;;;;16.77;8.82;;;7.20;99.90;;;;;;5041923;28;20045;-49
2024/02/02 11:29:01;;;;;;;14.73;8.10;;;7.30;99.90;;;;;;5040794;28;20041;-52
2024/02/02 11:31:31;;;;;;;16.38;8.55;;;7.40;99.90;;;;;;5044493;28;20569;-54
2024/02/02 11:34:13;;;;;;;16.73;8.48;;;7.40;99.90;;;;;;5048277;28;20049;-46
2024/02/02 11:37:02;;;;;;;14.18;8.65;;;7.20;99.90;;;;;;5047935;28;20063;-49
2024/02/02 11:39:38;;;;;;;15.75;9.00;;;7.20;99.90;;;;;;5043591;28;20030;-47
2024/02/02 11:42:10;;;;;;;16.08;8.65;;;7.20;99.90;;;;;;5043081;28;20655;-47
2024/02/02 11:44:40;;;;;;;17.35;8.52;;;7.30;99.90;;;;;;5044973;28;20501;-47
2024/02/02 11:47:09;;;;;;;16.48;8.25;;;7.30;99.90;;;;;;5044635;28;20072;-51
2024/02/02 11:49:42;;;;;;;17.67;8.38;;;7.30;99.90;;;;;;5044701;28;20061;-49
2024/02/02 11:52:23;;;;;;;16.17;8.45;;;7.30;99.90;;;;;;5042761;28;20060;-44
2024/02/02 11:55:02;;;;;;;15.10;8.73;;;7.40;99.90;;;;;;5048099;28;20072;-51
2024/02/02 11:57:32;;;;;;;16.23;7.97;;;7.40;99.90;;;;;;5050945;28;20413;-47
2024/02/02 12:00:02;;;;;;;14.80;7.28;;;7.30;99.90;;;;;;5044764;28;20056;-50
2024/02/02 12:02:56;;;;;;;15.27;7.50;;;7.40;99.90;;;;;;5042257;28;20805;-51
2024/02/02 12:05:29;;;;;;;11.50;7.20;;;7.50;99.90;;;;;;5041343;28;20072;-48
2024/02/02 12:08:22;;;;;;;11.25;7.22;;;7.60;99.90;;;;;;5046020;28;20532;-50
2024/02/02 12:10:50;;;;;;;13.85;6.90;;;7.60;99.90;;;;;;5041991;28;20080;-50
2024/02/02 12:13:25;;;;;;;12.85;6.88;;;7.70;99.90;;;;;;5040912;28;20144;-50
2024/02/02 12:15:52;;;;;;;11.68;6.88;;;7.70;99.90;;;;;;5043529;28;20378;-45
2024/02/02 12:18:20;;;;;;;10.55;6.35;;;7.80;99.90;;;;;;5040409;28;20239;-46
2024/02/02 12:20:48;;;;;;;12.98;6.85;;;7.90;99.90;;;;;;5041972;28;20060;-49
2024/02/02 12:23:15;;;;;;;11.52;6.38;;;7.90;99.90;;;;;;5042542;28;20103;-44
2024/02/02 12:25:42;;;;;;;14.05;6.70;;;8.20;99.90;;;;;;5043300;28;20068;-48
2024/02/02 12:28:09;;;;;;;10.82;6.45;;;8.30;99.90;;;;;;5040400;28;20106;-45
2024/02/02 12:30:36;;;;;;;10.77;5.88;;;8.30;99.90;;;;;;5041704;28;20120;-49
2024/02/02 12:33:04;;;;;;;11.63;6.22;;;8.20;99.90;;;;;;5043968;28;20044;-49
2024/02/02 12:35:31;;;;;;;11.45;5.88;;;8.10;99.90;;;;;;5041401;28;20037;-51
2024/02/02 12:37:58;;;;;;;11.52;6.32;;;8.10;99.90;;;;;;5042481;28;20065;-52
2024/02/02 12:40:25;;;;;;;9.60;5.95;;;8.10;99.90;;;;;;5040172;28;20045;-48
2024/02/02 12:42:55;;;;;;;11.38;5.63;;;8.10;99.90;;;;;;5041894;28;20128;-48
2024/02/02 12:45:22;;;;;;;8.95;5.63;;;8.00;99.90;;;;;;5039940;28;20076;-47
2024/02/02 12:47:50;;;;;;;10.85;5.55;;;8.10;99.90;;;;;;5043448;28;20068;-48
2024/02/02 12:50:20;;;;;;;8.60;5.32;;;8.20;99.90;;;;;;5040552;28;20057;-48
2024/02/02 12:52:50;;;;;;;11.05;5.97;;;8.20;99.90;;;;;;5039698;28;20156;-47
2024/02/02 12:55:21;;;;;;;11.38;5.93;;;8.30;99.90;;;;;;5040144;28;20157;-47
2024/02/02 12:57:48;;;;;;;9.50;5.35;;;8.30;99.90;;;;;;5043417;28;20041;-49
2024/02/02 13:00:15;;;;;;;10.40;6.15;;;8.40;99.90;;;;;;5042560;28;20041;-46
2024/02/02 13:02:45;;;;;;;9.50;5.75;;;8.40;99.90;;;;;;5043692;28;20470;-44
2024/02/02 13:05:16;;;;;;;7.78;5.45;;;8.50;99.90;;;;;;5037113;28;20526;-45
2024/02/02 13:07:48;;;;;;;8.20;5.75;;;8.60;99.90;;;;;;5043155;28;20045;-44
2024/02/02 13:10:33;;;;;;;10.35;5.72;;;8.60;99.90;;;;;;5040211;28;20055;-50